Language: 


Des rapports , des résumés tant et plus, au choix de chacun....


Données statistiques de la station
Quotidien Rapport Novembre 23, 2017 Unités:  Anglais    Métrique   les deux
« Précédent Jour
Suivant Jour »
Quotidien Hebdomadaire Mensuel Annuel Actuel
  Haut: Bas: Moyen:
Température: TemperatureC °F 0.0 °F 11.4 °F
Pt de rosée: DewpointC °F 6.0 °F 8.4 °F
Humidité: Humidity % 0 % 80 %
Vitesse du vent: WindSpeedKMH mph 0.0 mph 15 mph
Rafales: WindSpeedGustKMH mph - -
Vent:- - SW
Pression: PressurehPa in 0.0 in -
Précipitation: 3.8 in    
Historical Graphs
 
 
Données statistiques pour Novembre 23, 2017
Heure Température Point de rosée Pression Vent Vitesse du vent Refales Humidité Pluie (taux horaire)
TemperatureC °F DewpointC °F PressurehPa in Calm     Humidity % HourlyPrecipMM in
00:01 11.2 °F 7.0 °F 997.9 in SSW 5.0 mph 20.9 mph 72 % 0.0 in
00:11 11.4 °F 6.0 °F 997.9 in South 15.8 mph 20.1 mph 71 % 0.0 in
00:16 11.4 °F 6.0 °F 997.9 in SSW 17.2 mph 20.1 mph 71 % 0.0 in
00:21 11.5 °F 7.0 °F 997.9 in South 21.2 mph 21.9 mph 71 % 0.0 in
00:26 11.5 °F 7.0 °F 996.8 in SSW 16.6 mph 24.5 mph 71 % 0.0 in
00:31 11.6 °F 6.0 °F 996.8 in South 17.7 mph 24.5 mph 70 % 0.0 in
00:36 11.6 °F 6.0 °F 996.8 in South 11.9 mph 23.3 mph 70 % 0.0 in
00:41 11.7 °F 6.0 °F 996.8 in SSW 17.7 mph 24.5 mph 70 % 0.0 in
00:46 11.7 °F 6.0 °F 996.8 in South 20.1 mph 24.5 mph 69 % 0.0 in
00:51 11.7 °F 6.0 °F 996.8 in South 10.5 mph 21.2 mph 69 % 0.0 in
01:06 11.8 °F 6.0 °F 996.8 in SSW 20.9 mph 21.9 mph 69 % 0.0 in
01:11 11.8 °F 6.0 °F 996.2 in SW 16.9 mph 25.9 mph 68 % 0.0 in
01:16 11.8 °F 6.0 °F 996.2 in South 10.5 mph 25.9 mph 68 % 0.0 in
01:26 11.8 °F 6.0 °F 996.2 in South 25.6 mph 31.7 mph 68 % 0.0 in
01:31 11.8 °F 6.0 °F 996.2 in South 17.7 mph 31.7 mph 68 % 0.0 in
01:41 12.0 °F 6.0 °F 996.8 in South 11.9 mph 28.0 mph 66 % 0.0 in
01:46 11.9 °F 6.0 °F 996.8 in South 9.7 mph 23.3 mph 67 % 0.0 in
01:51 11.9 °F 6.0 °F 996.8 in South 16.6 mph 22.7 mph 67 % 0.0 in
02:01 12.0 °F 6.0 °F 996.8 in SSW 11.9 mph 27.4 mph 66 % 0.0 in
02:06 12.0 °F 6.0 °F 996.8 in South 16.9 mph 24.5 mph 66 % 0.0 in
02:11 12.1 °F 6.0 °F 996.8 in SSW 11.9 mph 24.5 mph 65 % 0.0 in
02:21 12.3 °F 6.0 °F 996.8 in SSW 19.5 mph 31.4 mph 64 % 0.0 in
02:27 12.4 °F 6.0 °F 996.8 in SSW 20.6 mph 38.9 mph 64 % 0.0 in
02:32 12.4 °F 6.0 °F 996.8 in South 27.7 mph 38.9 mph 63 % 0.0 in
02:37 12.4 °F 6.0 °F 996.8 in South 23.3 mph 31.4 mph 63 % 0.0 in
02:57 12.3 °F 6.0 °F 996.2 in South 16.9 mph 31.7 mph 64 % 0.0 in
03:02 0.0 °F 6.0 °F 0.0 in SSW 16.3 mph 36.0 mph 0 % 0.0 in
03:17 12.5 °F 6.0 °F 996.2 in SSW 17.7 mph 31.4 mph 63 % 0.0 in
03:22 12.5 °F 6.0 °F 996.2 in SSW 17.2 mph 30.9 mph 64 % 0.0 in
03:27 12.4 °F 6.0 °F 996.2 in SSW 18.0 mph 30.9 mph 64 % 0.0 in
03:32 12.4 °F 6.0 °F 996.2 in South 21.2 mph 31.7 mph 64 % 0.0 in
03:37 12.4 °F 6.0 °F 996.2 in SSW 19.8 mph 31.7 mph 65 % 0.0 in
03:42 12.4 °F 6.0 °F 995.1 in South 20.6 mph 26.2 mph 65 % 0.0 in
03:52 12.4 °F 6.0 °F 995.1 in South 28.8 mph 37.8 mph 65 % 0.0 in
04:02 12.5 °F 7.0 °F 994.1 in SSW 14.0 mph 35.6 mph 66 % 0.0 in
04:07 12.5 °F 7.0 °F 994.1 in SW 17.7 mph 35.6 mph 66 % 0.0 in
04:13 12.4 °F 6.0 °F 995.1 in SSW 27.0 mph 34.6 mph 66 % 0.0 in
04:19 12.4 °F 6.0 °F 995.1 in South 19.1 mph 34.6 mph 66 % 0.0 in
04:20 12.4 °F 6.0 °F 995.1 in South 24.8 mph 34.6 mph 66 % 0.0 in
04:25 12.4 °F 6.0 °F 995.1 in SSW 16.3 mph 28.5 mph 66 % 0.0 in
04:26 12.4 °F 6.0 °F 995.1 in SSW 21.2 mph 28.5 mph 66 % 0.0 in
04:31 12.4 °F 7.0 °F 995.1 in SSW 25.9 mph 35.6 mph 67 % 0.0 in
04:34 12.4 °F 6.0 °F 995.1 in SSW 23.8 mph 35.6 mph 66 % 0.0 in
04:39 12.4 °F 7.0 °F 995.1 in South 17.2 mph 35.6 mph 67 % 0.0 in
04:49 12.3 °F 7.0 °F 995.1 in SSW 21.9 mph 28.5 mph 67 % 0.0 in
04:54 12.2 °F 7.0 °F 995.1 in South 15.4 mph 33.1 mph 68 % 0.0 in
04:59 12.1 °F 7.0 °F 995.1 in South 35.2 mph 35.2 mph 68 % 0.0 in
05:00 12.1 °F 7.0 °F 995.1 in SSW 17.7 mph 35.2 mph 68 % 0.0 in
05:15 12.0 °F 7.0 °F 994.1 in SSW 23.8 mph 32.0 mph 69 % 0.0 in
05:20 12.0 °F 7.0 °F 994.1 in South 24.5 mph 32.0 mph 69 % 0.0 in
05:30 12.2 °F 7.0 °F 994.1 in SSW 24.5 mph 35.6 mph 69 % 0.0 in
05:35 12.1 °F 7.0 °F 994.1 in South 24.5 mph 35.6 mph 69 % 0.0 in
05:40 12.2 °F 7.0 °F 994.1 in South 19.1 mph 33.1 mph 69 % 0.0 in
05:45 12.2 °F 7.0 °F 994.1 in South 19.1 mph 35.6 mph 70 % 0.0 in
05:50 12.2 °F 7.0 °F 994.1 in West 25.9 mph 35.6 mph 70 % 0.0 in
05:55 12.2 °F 7.0 °F 994.1 in South 16.9 mph 30.9 mph 70 % 0.0 in
06:00 12.2 °F 7.0 °F 994.1 in South 21.2 mph 30.9 mph 70 % 0.0 in
06:05 12.3 °F 7.0 °F 994.1 in SSE 27.7 mph 33.1 mph 70 % 0.0 in
06:10 12.3 °F 7.0 °F 993.1 in SSW 29.9 mph 36.4 mph 70 % 0.0 in
06:15 12.3 °F 7.0 °F 993.1 in SSW 9.0 mph 36.4 mph 70 % 0.0 in
06:20 12.3 °F 8.0 °F 993.1 in SSE 16.9 mph 32.0 mph 71 % 0.0 in
06:25 12.5 °F 8.0 °F 993.1 in South 24.5 mph 36.0 mph 71 % 0.0 in
06:30 12.5 °F 8.0 °F 993.1 in South 22.4 mph 36.0 mph 71 % 0.0 in
06:35 12.5 °F 8.0 °F 993.1 in SSW 28.5 mph 28.5 mph 71 % 0.0 in
06:40 12.5 °F 8.0 °F 993.1 in South 22.7 mph 31.7 mph 71 % 0.0 in
06:45 12.6 °F 8.0 °F 993.1 in South 24.5 mph 34.6 mph 71 % 0.0 in
06:51 12.7 °F 8.0 °F 993.1 in South 19.5 mph 38.1 mph 71 % 0.0 in
06:56 12.8 °F 9.0 °F 994.1 in South 12.6 mph 38.1 mph 72 % 0.0 in
07:01 12.9 °F 9.0 °F 994.1 in WSW 19.8 mph 28.5 mph 72 % 0.0 in
07:11 13.2 °F 9.0 °F 994.1 in South 21.6 mph 45.1 mph 73 % 0.0 in
07:16 13.4 °F 9.0 °F 994.1 in South 19.8 mph 38.5 mph 73 % 0.0 in
07:26 13.6 °F 9.0 °F 994.1 in SSW 17.7 mph 41.7 mph 74 % 0.0 in
07:31 13.6 °F 9.0 °F 994.1 in SW 37.0 mph 37.0 mph 74 % 0.0 in
07:41 13.7 °F 10.0 °F 995.1 in SSW 28.5 mph 37.0 mph 75 % 0.0 in
07:46 13.7 °F 10.0 °F 995.1 in SSW 28.5 mph 28.5 mph 76 % 0.0 in
07:52 13.7 °F 10.0 °F 995.1 in SSW 28.5 mph 28.5 mph 77 % 0.0 in
07:57 13.6 °F 10.0 °F 995.1 in South 18.0 mph 28.5 mph 78 % 0.0 in
08:02 13.3 °F 10.0 °F 995.1 in South 24.5 mph 36.0 mph 81 % 0.0 in
08:07 13.2 °F 11.0 °F 995.1 in SW 30.6 mph 40.7 mph 84 % 0.0 in
08:12 13.0 °F 11.0 °F 995.1 in SW 24.5 mph 40.7 mph 84 % 0.0 in
08:17 13.0 °F 11.0 °F 995.1 in South 20.6 mph 37.0 mph 88 % 0.0 in
08:22 12.9 °F 12.0 °F 995.1 in SSW 25.9 mph 40.4 mph 91 % 0.3 in
08:27 12.7 °F 12.0 °F 996.2 in SW 24.5 mph 40.4 mph 92 % 0.3 in
08:37 12.5 °F 12.0 °F 996.2 in WSW 11.9 mph 24.8 mph 93 % 0.8 in
08:42 12.4 °F 12.0 °F 996.8 in WSW 13.0 mph 24.8 mph 94 % 0.8 in
08:47 12.3 °F 12.0 °F 996.8 in WSW 12.2 mph 17.2 mph 94 % 1.5 in
08:52 12.2 °F 12.0 °F 996.8 in WSW 13.0 mph 19.1 mph 95 % 2.3 in
08:57 12.2 °F 12.0 °F 996.8 in SW 20.6 mph 20.6 mph 96 % 2.5 in
09:02 12.3 °F 12.0 °F 996.8 in SW 9.3 mph 20.6 mph 97 % 2.5 in
09:07 12.3 °F 12.0 °F 996.8 in SW 13.7 mph 24.8 mph 97 % 2.5 in
09:12 12.4 °F 13.0 °F 996.2 in SW 10.8 mph 24.8 mph 98 % 2.5 in
09:17 12.4 °F 13.0 °F 996.2 in SW 17.2 mph 20.9 mph 98 % 2.5 in
09:22 12.4 °F 13.0 °F 996.2 in SSW 16.3 mph 21.2 mph 98 % 2.3 in
09:27 12.4 °F 13.0 °F 996.8 in SW 16.6 mph 21.2 mph 98 % 2.3 in
09:32 12.5 °F 13.0 °F 996.8 in SW 15.8 mph 24.5 mph 98 % 2.3 in
09:57 12.7 °F 13.0 °F 996.8 in SW 14.0 mph 19.5 mph 98 % 0.3 in
10:02 12.7 °F 13.0 °F 996.8 in WSW 9.0 mph 24.5 mph 98 % 0.3 in
10:12 12.8 °F 13.0 °F 997.9 in SSW 13.7 mph 20.9 mph 98 % 0.3 in
10:18 12.9 °F 13.0 °F 997.9 in South 17.7 mph 23.3 mph 98 % 0.3 in
10:23 13.1 °F 13.0 °F 997.9 in South 10.5 mph 23.3 mph 97 % 0.3 in
10:28 13.3 °F 13.0 °F 997.9 in SSW 17.7 mph 20.9 mph 97 % 0.0 in
10:34 13.3 °F 13.0 °F 997.9 in South 12.2 mph 20.9 mph 97 % 0.0 in
10:44 13.5 °F 13.0 °F 998.9 in SSW 15.1 mph 25.3 mph 97 % 0.0 in
10:54 13.7 °F 13.0 °F 998.9 in SSW 19.5 mph 30.6 mph 96 % 0.0 in
10:59 13.8 °F 13.0 °F 998.9 in SSW 19.8 mph 30.6 mph 96 % 0.0 in
11:09 13.9 °F 13.0 °F 998.9 in SW 15.8 mph 24.5 mph 95 % 0.0 in
11:14 13.9 °F 13.0 °F 998.9 in SSW 20.6 mph 23.8 mph 95 % 0.0 in
11:19 14.0 °F 13.0 °F 998.9 in SW 15.1 mph 23.0 mph 95 % 0.0 in
11:24 14.2 °F 14.0 °F 998.9 in SW 15.8 mph 23.8 mph 95 % 0.0 in
11:29 14.5 °F 14.0 °F 998.9 in WSW 12.6 mph 23.8 mph 95 % 0.0 in
11:49 14.5 °F 13.0 °F 998.9 in SW 16.3 mph 30.9 mph 91 % 0.0 in
11:54 14.8 °F 13.0 °F 998.9 in SW 17.2 mph 30.9 mph 91 % 0.0 in
12:04 15.0 °F 13.0 °F 998.9 in SW 16.9 mph 25.9 mph 88 % 0.0 in
12:09 14.9 °F 13.0 °F 998.9 in WSW 20.9 mph 25.3 mph 88 % 0.0 in
12:14 14.8 °F 13.0 °F 998.9 in WSW 41.0 mph 46.0 mph 88 % 0.0 in
12:19 14.1 °F 13.0 °F 998.9 in WSW 42.8 mph 48.9 mph 89 % 0.5 in
12:24 13.7 °F 13.0 °F 998.9 in West 25.6 mph 48.9 mph 91 % 0.5 in
12:30 13.7 °F 13.0 °F 1000.9 in WSW 24.8 mph 46.8 mph 92 % 0.5 in
12:35 13.7 °F 13.0 °F 1000.9 in WSW 33.8 mph 39.6 mph 93 % 0.5 in
12:50 13.7 °F 13.0 °F 1000.9 in SW 34.3 mph 36.0 mph 93 % 1.0 in
12:55 13.7 °F 13.0 °F 1000.9 in WSW 20.1 mph 42.2 mph 93 % 1.0 in
13:00 13.7 °F 13.0 °F 1000.9 in WSW 20.9 mph 42.2 mph 93 % 1.0 in
13:05 13.7 °F 13.0 °F 1000.9 in WSW 30.6 mph 39.3 mph 93 % 1.0 in
13:10 13.2 °F 11.0 °F 1000.9 in WSW 24.5 mph 39.3 mph 85 % 1.0 in
13:15 13.7 °F 11.0 °F 1001.9 in WSW 31.7 mph 36.7 mph 84 % 0.8 in
13:25 13.7 °F 11.0 °F 1001.9 in WSW 27.7 mph 41.7 mph 84 % 0.3 in
13:30 13.7 °F 11.0 °F 1000.9 in WSW 26.2 mph 38.1 mph 84 % 0.3 in
13:40 13.7 °F 11.0 °F 1000.9 in West 41.0 mph 43.6 mph 84 % 0.0 in
13:45 13.7 °F 11.0 °F 1001.9 in WNW 32.0 mph 43.1 mph 84 % 0.0 in
14:00 13.7 °F 11.0 °F 1002.9 in West 30.9 mph 36.4 mph 84 % 0.0 in
14:05 13.7 °F 11.0 °F 1002.9 in West 21.2 mph 31.4 mph 84 % 0.0 in
14:10 12.7 °F 11.0 °F 1002.9 in West 21.9 mph 28.5 mph 85 % 0.0 in
14:16 12.7 °F 11.0 °F 1002.9 in West 33.1 mph 33.1 mph 85 % 0.0 in
14:26 12.7 °F 11.0 °F 1002.9 in WSW 16.9 mph 38.9 mph 85 % 0.0 in
14:27 12.7 °F 11.0 °F 1002.9 in WSW 20.9 mph 38.9 mph 85 % 0.0 in
14:32 12.7 °F 11.0 °F 1002.9 in WSW 23.8 mph 40.7 mph 85 % 0.0 in
14:37 12.7 °F 11.0 °F 1002.9 in West 28.0 mph 40.7 mph 85 % 0.0 in
14:42 12.7 °F 11.0 °F 1002.9 in West 23.3 mph 40.4 mph 85 % 0.0 in
14:47 12.7 °F 11.0 °F 1002.9 in WSW 20.6 mph 35.2 mph 85 % 0.0 in
14:52 12.7 °F 11.0 °F 1002.9 in WSW 28.5 mph 37.0 mph 85 % 0.0 in
14:54 12.7 °F 11.0 °F 1002.9 in West 23.8 mph 37.0 mph 85 % 0.0 in
14:59 12.7 °F 11.0 °F 1002.9 in WSW 27.4 mph 36.0 mph 85 % 0.0 in
15:04 12.7 °F 11.0 °F 1002.9 in WSW 24.8 mph 36.0 mph 85 % 0.0 in
15:09 12.4 °F 8.0 °F 1002.9 in WSW 24.5 mph 36.4 mph 72 % 0.0 in
15:14 12.3 °F 8.0 °F 1002.9 in WSW 18.3 mph 36.4 mph 74 % 0.0 in
15:19 12.2 °F 8.0 °F 1002.9 in WSW 21.2 mph 28.8 mph 73 % 0.0 in
15:24 12.2 °F 8.0 °F 1002.9 in WSW 23.8 mph 36.4 mph 73 % 0.0 in
15:30 12.3 °F 7.0 °F 1003.9 in WSW 21.2 mph 36.4 mph 68 % 0.0 in
15:35 12.2 °F 7.0 °F 1003.9 in WSW 18.0 mph 31.7 mph 69 % 0.0 in
15:40 12.1 °F 7.0 °F 1003.9 in West 20.6 mph 31.7 mph 69 % 0.0 in
15:45 12.0 °F 7.0 °F 1005.0 in WSW 16.3 mph 31.4 mph 69 % 0.0 in
15:47 11.7 °F 6.0 °F 1005.0 in WSW 20.6 mph 31.4 mph 70 % 0.0 in
15:52 11.7 °F 7.0 °F 1005.0 in WSW 13.0 mph 28.5 mph 71 % 0.0 in
15:57 11.6 °F 7.0 °F 1005.0 in WSW 12.2 mph 27.0 mph 71 % 0.0 in
16:02 11.4 °F 7.0 °F 1005.0 in WSW 11.9 mph 23.0 mph 72 % 0.0 in
16:07 11.2 °F 7.0 °F 1005.0 in WSW 16.3 mph 20.6 mph 73 % 0.0 in
16:12 11.1 °F 6.0 °F 1005.0 in WSW 10.1 mph 20.6 mph 73 % 0.0 in
16:21 11.1 °F 6.0 °F 1005.0 in WSW 10.8 mph 18.3 mph 73 % 0.0 in
16:26 11.1 °F 6.0 °F 1005.0 in Calm   18.3 mph 73 % 0.0 in
16:31 11.1 °F 6.0 °F 1005.0 in WSW 10.1 mph 14.0 mph 73 % 0.0 in
16:42 10.0 °F 6.0 °F 1005.0 in SW 6.1 mph 12.6 mph 76 % 0.0 in
16:52 10.0 °F 6.0 °F 1005.0 in SW 5.8 mph 9.7 mph 76 % 0.0 in
17:02 10.0 °F 6.0 °F 1005.0 in SW 5.8 mph 9.7 mph 76 % 0.0 in
17:07 10.0 °F 6.0 °F 1005.0 in SSW 7.2 mph 11.6 mph 76 % 0.0 in
17:12 10.0 °F 6.0 °F 1006.0 in Calm   11.6 mph 76 % 0.0 in
17:22 10.0 °F 6.0 °F 1006.0 in Calm   9.0 mph 76 % 0.0 in
17:27 10.0 °F 6.0 °F 1006.0 in Calm   6.4 mph 76 % 0.0 in
17:37 10.0 °F 6.0 °F 1006.0 in Calm   4.7 mph 76 % 0.0 in
17:42 10.0 °F 6.0 °F 1006.0 in Calm   4.7 mph 76 % 0.0 in
17:47 10.0 °F 6.0 °F 1006.0 in Calm     76 % 0.0 in
17:52 10.0 °F 6.0 °F 1006.0 in Calm     76 % 0.0 in
18:03 10.0 °F 6.0 °F 1007.0 in Calm   2.1 mph 76 % 0.0 in
18:08 10.0 °F 6.0 °F 1007.0 in Calm   1.4 mph 76 % 0.0 in
18:13 10.0 °F 6.0 °F 1007.0 in Calm   5.5 mph 76 % 0.0 in
18:18 8.4 °F 6.0 °F 1007.0 in SSW 4.0 mph 5.5 mph 85 % 0.0 in
18:23 8.4 °F 6.0 °F 1007.0 in SSW 1.8 mph 6.4 mph 85 % 0.0 in
18:28 8.4 °F 6.0 °F 1007.0 in Calm   7.6 mph 85 % 0.0 in
18:38 8.4 °F 6.0 °F 1007.0 in Calm   6.1 mph 85 % 0.0 in
18:43 8.4 °F 6.0 °F 1007.0 in Calm   6.1 mph 85 % 0.0 in
18:48 8.4 °F 6.0 °F 1007.0 in Calm   5.8 mph 85 % 0.0 in
18:53 8.4 °F 6.0 °F 1007.0 in SSW 2.1 mph 5.8 mph 85 % 0.0 in
18:58 8.4 °F 6.0 °F 1007.0 in Calm   5.0 mph 85 % 0.0 in
19:03 8.0 °F 6.0 °F 1007.0 in Calm   6.4 mph 88 % 0.0 in
19:13 8.0 °F 6.0 °F 1006.0 in Calm   9.3 mph 88 % 0.0 in
19:23 8.0 °F 6.0 °F 1006.0 in Calm   8.7 mph 88 % 0.0 in
19:28 8.0 °F 6.0 °F 1007.0 in South 5.5 mph 10.1 mph 88 % 0.0 in
19:38 8.1 °F 7.0 °F 1007.0 in SW 7.9 mph 10.1 mph 91 % 0.0 in
19:43 8.2 °F 7.0 °F 1007.0 in Calm   12.6 mph 91 % 0.0 in
19:48 8.2 °F 7.0 °F 1007.0 in South 5.8 mph 12.6 mph 91 % 0.0 in
19:53 8.2 °F 7.0 °F 1007.0 in SSW 5.0 mph 9.3 mph 91 % 0.0 in
19:58 8.3 °F 7.0 °F 1007.0 in Calm   9.7 mph 92 % 0.0 in
20:03 8.4 °F 7.0 °F 1007.0 in Calm   9.7 mph 92 % 0.0 in
20:13 8.5 °F 8.0 °F 1007.0 in SSW 6.9 mph 9.3 mph 93 % 0.0 in
20:18 8.6 °F 8.0 °F 1007.0 in Calm   9.3 mph 92 % 0.0 in
20:23 8.5 °F 8.0 °F 1007.0 in Calm   9.3 mph 92 % 0.0 in
20:28 8.5 °F 8.0 °F 1007.0 in Calm   9.0 mph 92 % 0.0 in
20:33 8.5 °F 8.0 °F 1007.0 in South 6.1 mph 9.0 mph 92 % 0.0 in
20:43 8.5 °F 8.0 °F 1008.0 in Calm   7.6 mph 92 % 0.0 in
20:48 8.5 °F 8.0 °F 1008.0 in SSW 1.8 mph 10.5 mph 92 % 0.0 in
20:53 8.5 °F 8.0 °F 1008.0 in Calm   10.5 mph 92 % 0.0 in
20:58 8.5 °F 8.0 °F 1008.0 in SSW 3.5 mph 8.7 mph 92 % 0.0 in
21:03 8.4 °F 8.0 °F 1008.0 in SSW 4.0 mph 6.9 mph 93 % 0.0 in
21:14 8.4 °F 7.0 °F 1008.0 in SSW 7.2 mph 7.9 mph 92 % 0.0 in
21:19 8.4 °F 7.0 °F 1008.0 in SW 5.0 mph 9.3 mph 92 % 0.0 in
21:24 8.4 °F 7.0 °F 1008.0 in SSW 6.4 mph 10.5 mph 92 % 0.0 in
21:29 8.4 °F 7.0 °F 1008.0 in SSW 7.2 mph 10.5 mph 92 % 0.0 in
21:39 8.4 °F 7.0 °F 1008.0 in SW 7.9 mph 11.9 mph 92 % 0.0 in
21:44 8.4 °F 7.0 °F 1009.0 in South 10.1 mph 11.9 mph 92 % 0.0 in
21:49 8.9 °F 8.0 °F 1009.0 in SSW 6.9 mph 10.1 mph 92 % 0.0 in
21:59 8.9 °F 8.0 °F 1008.0 in SW 4.7 mph 11.6 mph 92 % 0.0 in
22:04 8.9 °F 8.0 °F 1008.0 in SSW 5.0 mph 12.2 mph 92 % 0.0 in
22:10 8.9 °F 8.0 °F 1008.0 in SW 10.5 mph 10.5 mph 92 % 0.0 in
22:15 8.9 °F 8.0 °F 1008.0 in SSW 5.5 mph 13.0 mph 92 % 0.0 in
22:25 8.9 °F 8.0 °F 1008.0 in SW 9.0 mph 10.1 mph 92 % 0.0 in
22:40 8.7 °F 7.0 °F 1008.0 in SSW 1.4 mph 10.1 mph 88 % 0.0 in
22:45 8.7 °F 7.0 °F 1008.0 in Calm   10.1 mph 88 % 0.0 in
23:00 8.5 °F 7.0 °F 1008.0 in SSW 4.0 mph 9.0 mph 88 % 0.0 in
23:10 8.5 °F 7.0 °F 1007.0 in South 4.0 mph 5.5 mph 88 % 0.0 in
23:15 8.2 °F 6.0 °F 1007.0 in SSW 1.4 mph 9.3 mph 87 % 0.0 in
23:20 8.2 °F 6.0 °F 1007.0 in South 4.3 mph 9.3 mph 87 % 0.0 in
23:25 8.2 °F 6.0 °F 1007.0 in Calm   6.9 mph 87 % 0.0 in
23:30 8.2 °F 7.0 °F 1007.0 in Calm   6.9 mph 89 % 0.0 in
23:35 8.3 °F 7.0 °F 1007.0 in Calm   5.8 mph 90 % 0.0 in
23:40 8.4 °F 7.0 °F 1007.0 in Calm   8.7 mph 90 % 0.0 in
23:45 8.5 °F 7.0 °F 1007.0 in Calm   8.7 mph 90 % 0.0 in
23:50 8.5 °F 7.0 °F 1007.0 in SW 5.5 mph 8.7 mph 90 % 0.0 in
23:55 8.7 °F 7.0 °F 1007.0 in SSW 5.5 mph 9.0 mph 90 % 0.0 in
Le Gheer Warneton
Courtoisie de Weather Underground - 2 mb

Mise a jour : 23/02/2018 07:35:11
Généré par Cumulus 1.9.4 (1099)